createdAt,value
2023-08-11T00:00:22.624Z,16.86
2023-08-11T00:02:52.758Z,16.83
2023-08-11T00:05:20.599Z,16.81
2023-08-11T00:07:51.511Z,16.73
2023-08-11T00:10:19.392Z,16.62
2023-08-11T00:12:46.485Z,16.57
2023-08-11T00:15:13.627Z,16.52
2023-08-11T00:17:43.035Z,16.46
2023-08-11T00:20:10.021Z,16.44
2023-08-11T00:22:39.013Z,16.46
2023-08-11T00:25:06.721Z,16.41
2023-08-11T00:27:33.410Z,16.40
2023-08-11T00:30:00.004Z,16.39
2023-08-11T00:32:26.736Z,16.33
2023-08-11T00:34:53.656Z,16.31
2023-08-11T00:37:20.384Z,16.30
2023-08-11T00:39:47.056Z,16.23
2023-08-11T00:42:13.936Z,16.22
2023-08-11T00:44:40.650Z,16.20
2023-08-11T00:47:07.685Z,16.13
2023-08-11T00:49:34.836Z,16.15
2023-08-11T00:52:01.828Z,16.14
2023-08-11T00:54:29.515Z,16.15
2023-08-11T00:56:56.385Z,16.19
2023-08-11T00:59:24.293Z,16.22
2023-08-11T01:01:50.876Z,16.24
2023-08-11T01:04:18.044Z,16.24
2023-08-11T01:06:58.546Z,16.21
2023-08-11T01:09:36.618Z,16.17
2023-08-11T01:12:40.826Z,16.16
2023-08-11T01:15:23.524Z,16.13
2023-08-11T01:17:52.019Z,16.11
2023-08-11T01:20:19.629Z,16.06
2023-08-11T01:22:48.948Z,16.02
2023-08-11T01:25:15.666Z,16.00
2023-08-11T01:27:57.721Z,15.96
2023-08-11T01:30:25.589Z,15.94
2023-08-11T01:32:53.389Z,15.92
2023-08-11T01:35:33.601Z,15.87
2023-08-11T01:38:05.762Z,15.84
2023-08-11T01:40:32.335Z,15.83
2023-08-11T01:43:03.614Z,15.85
2023-08-11T01:45:30.513Z,15.84
2023-08-11T01:47:57.744Z,15.81
2023-08-11T01:50:25.091Z,15.76
2023-08-11T01:52:53.341Z,15.72
2023-08-11T01:55:19.906Z,15.70
2023-08-11T01:57:57.664Z,15.68
2023-08-11T02:00:25.661Z,15.69
2023-08-11T02:02:52.230Z,15.72
2023-08-11T02:05:19.244Z,15.73
2023-08-11T02:07:46.332Z,15.74
2023-08-11T02:10:13.597Z,15.69
2023-08-11T02:12:41.039Z,15.68
2023-08-11T02:15:08.615Z,15.64
2023-08-11T02:17:36.387Z,15.64
2023-08-11T02:20:19.335Z,15.63
2023-08-11T02:22:46.227Z,15.56
2023-08-11T02:25:13.097Z,15.50
2023-08-11T02:27:39.893Z,15.49
2023-08-11T02:30:07.853Z,15.48
2023-08-11T02:32:34.750Z,15.48
2023-08-11T02:35:01.921Z,15.44
2023-08-11T02:37:28.544Z,15.39
2023-08-11T02:39:55.057Z,15.38
2023-08-11T02:42:22.084Z,15.35
2023-08-11T02:44:50.155Z,15.30
2023-08-11T02:47:16.763Z,15.24
2023-08-11T02:49:43.466Z,15.21
2023-08-11T02:52:10.867Z,15.21
2023-08-11T02:54:37.795Z,15.22
2023-08-11T02:57:04.589Z,15.22
2023-08-11T02:59:31.523Z,15.21
2023-08-11T03:01:58.036Z,15.20
2023-08-11T03:04:24.660Z,15.19
2023-08-11T03:06:52.191Z,15.20
2023-08-11T03:09:18.782Z,15.20
2023-08-11T03:11:45.330Z,15.14
2023-08-11T03:14:20.950Z,15.14
2023-08-11T03:16:47.572Z,15.10
2023-08-11T03:19:14.153Z,15.08
2023-08-11T03:21:40.649Z,15.08
2023-08-11T03:24:07.465Z,15.00
2023-08-11T03:26:34.935Z,14.96
2023-08-11T03:29:01.573Z,14.94
2023-08-11T03:31:28.096Z,14.93
2023-08-11T03:33:54.872Z,14.87
2023-08-11T03:36:21.845Z,14.83
2023-08-11T03:38:49.467Z,14.77
2023-08-11T03:41:16.143Z,14.74
2023-08-11T03:43:42.705Z,14.72
2023-08-11T03:46:09.445Z,14.70
2023-08-11T03:48:36.044Z,14.69
2023-08-11T03:51:03.473Z,14.65
2023-08-11T03:53:31.546Z,14.64
2023-08-11T03:55:58.950Z,14.64
2023-08-11T03:58:25.692Z,14.65
2023-08-11T04:00:52.465Z,14.68
2023-08-11T04:03:19.096Z,14.67
2023-08-11T04:05:45.677Z,14.67
2023-08-11T04:08:12.636Z,14.66
2023-08-11T04:10:39.513Z,14.67
2023-08-11T04:13:06.367Z,14.68
2023-08-11T04:15:33.836Z,14.70
2023-08-11T04:18:00.676Z,14.73
2023-08-11T04:20:29.655Z,14.70
2023-08-11T04:22:57.304Z,14.66
2023-08-11T04:25:25.302Z,14.65
2023-08-11T04:27:52.099Z,14.65
2023-08-11T04:30:19.027Z,14.62
2023-08-11T04:32:45.812Z,14.58
2023-08-11T04:35:12.650Z,14.57
2023-08-11T04:37:39.618Z,14.60
2023-08-11T04:40:10.639Z,14.60
2023-08-11T04:42:40.810Z,14.59
2023-08-11T04:45:07.973Z,14.59
2023-08-11T04:47:34.462Z,14.55
2023-08-11T04:50:01.724Z,14.57
2023-08-11T04:52:28.571Z,14.60
2023-08-11T04:54:55.140Z,14.63
2023-08-11T04:57:25.606Z,14.66
2023-08-11T04:59:52.217Z,14.70
2023-08-11T05:02:18.749Z,14.76
2023-08-11T05:04:45.378Z,14.82
2023-08-11T05:07:11.921Z,14.87
2023-08-11T05:09:38.683Z,14.90
2023-08-11T05:12:06.056Z,14.96
2023-08-11T05:14:32.976Z,15.06
2023-08-11T05:17:01.581Z,15.13
2023-08-11T05:19:30.435Z,15.19
2023-08-11T05:23:57.106Z,15.32
2023-08-11T05:26:23.802Z,15.45
2023-08-11T05:28:50.449Z,15.65
2023-08-11T05:31:17.348Z,16.05
2023-08-11T05:33:43.984Z,16.86
2023-08-11T05:36:10.441Z,18.59
2023-08-11T05:38:37.012Z,20.18
2023-08-11T05:41:04.319Z,21.73
2023-08-11T05:43:31.178Z,23.31
2023-08-11T05:45:57.815Z,23.21
2023-08-11T05:48:24.472Z,22.79
2023-08-11T05:50:51.677Z,23.46
2023-08-11T05:53:18.230Z,24.58
2023-08-11T05:55:44.879Z,25.56
2023-08-11T05:58:11.620Z,26.88
2023-08-11T06:00:38.173Z,28.34
2023-08-11T06:03:05.016Z,28.40
2023-08-11T06:05:31.908Z,28.25
2023-08-11T06:08:06.164Z,28.51
2023-08-11T06:10:33.925Z,29.49
2023-08-11T06:13:00.683Z,28.97
2023-08-11T06:15:27.457Z,29.61
2023-08-11T06:17:54.037Z,30.34
2023-08-11T06:20:26.623Z,30.46
2023-08-11T06:23:01.709Z,31.02
2023-08-11T06:25:28.863Z,30.82
2023-08-11T06:27:56.381Z,30.78
2023-08-11T06:30:22.886Z,31.56
2023-08-11T06:32:49.437Z,30.70
2023-08-11T06:35:15.996Z,28.34
2023-08-11T06:37:42.541Z,26.59
2023-08-11T06:40:10.190Z,26.92
2023-08-11T06:42:36.658Z,28.47
2023-08-11T06:45:03.914Z,29.69
2023-08-11T06:47:32.258Z,30.88
2023-08-11T06:49:59.521Z,31.09
2023-08-11T06:52:27.414Z,30.11
2023-08-11T06:54:54.022Z,27.33
2023-08-11T06:57:23.395Z,25.54
2023-08-11T06:59:50.023Z,24.54
2023-08-11T07:02:16.615Z,24.11
2023-08-11T07:04:43.204Z,23.58
2023-08-11T07:07:09.999Z,23.26
2023-08-11T07:09:37.495Z,22.98
2023-08-11T07:12:04.210Z,22.53
2023-08-11T07:14:30.752Z,22.37
2023-08-11T07:16:57.418Z,22.21
2023-08-11T07:19:23.947Z,22.15
2023-08-11T07:21:50.462Z,22.07
2023-08-11T07:24:17.213Z,21.98
2023-08-11T07:26:43.773Z,22.12
2023-08-11T07:29:10.335Z,22.17
2023-08-11T07:31:37.207Z,22.20
2023-08-11T07:34:04.454Z,22.28
2023-08-11T07:36:31.151Z,22.92
2023-08-11T07:39:09.066Z,25.43
2023-08-11T07:41:43.909Z,27.29
2023-08-11T07:44:10.782Z,28.52
2023-08-11T07:46:37.391Z,29.66
2023-08-11T07:49:11.684Z,30.37
2023-08-11T07:54:18.749Z,31.64
2023-08-11T07:56:46.066Z,31.86
2023-08-11T07:59:12.957Z,32.26
2023-08-11T08:01:41.025Z,32.46
2023-08-11T08:04:07.530Z,32.12
2023-08-11T08:06:54.372Z,32.17
2023-08-11T08:09:20.886Z,32.50
2023-08-11T08:11:48.863Z,32.84
2023-08-11T08:14:15.953Z,32.82
2023-08-11T08:16:43.421Z,33.01
2023-08-11T08:19:12.112Z,33.23
2023-08-11T08:21:39.852Z,33.40
2023-08-11T08:24:06.808Z,33.40
2023-08-11T08:26:33.710Z,33.40
2023-08-11T08:29:05.089Z,33.61
2023-08-11T08:31:31.760Z,33.48
2023-08-11T08:33:58.656Z,33.59
2023-08-11T08:36:25.216Z,33.66
2023-08-11T08:38:51.774Z,33.52
2023-08-11T08:41:28.467Z,32.98
2023-08-11T08:44:01.401Z,33.24
2023-08-11T08:46:29.919Z,33.21
2023-08-11T08:49:06.209Z,32.87
2023-08-11T08:51:32.985Z,33.21
2023-08-11T08:53:59.611Z,33.34
2023-08-11T08:56:27.604Z,33.19
2023-08-11T08:58:54.314Z,32.89
2023-08-11T09:01:21.324Z,33.18
2023-08-11T09:03:48.218Z,33.48
2023-08-11T09:06:16.113Z,33.76
2023-08-11T09:08:42.689Z,33.91
2023-08-11T09:11:09.211Z,33.14
2023-08-11T09:13:50.234Z,32.69
2023-08-11T09:16:16.868Z,32.11
2023-08-11T09:19:00.020Z,32.49
2023-08-11T09:21:26.774Z,32.77
2023-08-11T09:23:54.974Z,33.24
2023-08-11T09:26:25.477Z,33.80
2023-08-11T09:28:52.571Z,34.01
2023-08-11T09:31:26.191Z,33.68
2023-08-11T09:33:53.702Z,32.98
2023-08-11T09:36:20.879Z,32.73
2023-08-11T09:38:48.972Z,32.75
2023-08-11T09:41:16.478Z,33.30
2023-08-11T09:43:55.246Z,33.62
2023-08-11T09:46:28.034Z,33.50
2023-08-11T09:48:56.228Z,33.35
2023-08-11T09:51:23.251Z,33.31
2023-08-11T09:53:52.184Z,33.09
2023-08-11T09:56:21.000Z,32.94
2023-08-11T09:58:51.099Z,33.05
2023-08-11T10:01:21.075Z,33.49
2023-08-11T10:03:49.548Z,33.62
2023-08-11T10:06:27.833Z,33.54
2023-08-11T10:08:57.957Z,33.43
2023-08-11T10:11:26.037Z,33.35
2023-08-11T10:13:55.264Z,33.58
2023-08-11T10:16:21.831Z,33.30
2023-08-11T10:18:48.503Z,32.98
2023-08-11T10:21:15.135Z,32.78
2023-08-11T10:23:41.952Z,32.64
2023-08-11T10:26:09.445Z,32.45
2023-08-11T10:28:36.865Z,32.52
2023-08-11T10:31:06.253Z,32.56
2023-08-11T10:33:33.274Z,32.29
2023-08-11T10:36:01.642Z,32.04
2023-08-11T10:38:35.450Z,31.97
2023-08-11T10:41:05.528Z,31.88
2023-08-11T10:43:34.936Z,32.11
2023-08-11T10:46:23.451Z,32.40
2023-08-11T10:48:51.948Z,32.43
2023-08-11T10:51:31.879Z,32.43
2023-08-11T10:54:12.330Z,32.40
2023-08-11T10:56:40.356Z,32.45
2023-08-11T10:59:24.211Z,32.40
2023-08-11T11:01:53.504Z,32.46
2023-08-11T11:04:22.152Z,32.50
2023-08-11T11:06:52.216Z,32.70
2023-08-11T11:09:22.405Z,32.35
2023-08-11T11:11:51.849Z,32.21
2023-08-11T11:14:18.813Z,32.12
2023-08-11T11:16:45.451Z,31.72
2023-08-11T11:19:12.055Z,31.65
2023-08-11T11:21:41.572Z,31.76
2023-08-11T11:24:09.946Z,31.90
2023-08-11T11:26:36.921Z,31.71
2023-08-11T11:29:08.721Z,31.51
2023-08-11T11:31:39.282Z,31.56
2023-08-11T11:34:06.678Z,31.52
2023-08-11T11:36:33.927Z,31.54
2023-08-11T11:39:03.796Z,31.25
2023-08-11T11:41:31.857Z,31.40
2023-08-11T11:43:58.409Z,31.15
2023-08-11T11:46:25.208Z,31.22
2023-08-11T11:48:53.570Z,31.35
2023-08-11T11:51:21.973Z,31.29
2023-08-11T11:53:52.099Z,31.13
2023-08-11T11:56:19.366Z,31.22
2023-08-11T11:58:48.499Z,31.32
2023-08-11T12:01:28.818Z,31.24
2023-08-11T12:04:00.921Z,31.11
2023-08-11T12:06:29.046Z,31.14
2023-08-11T12:11:45.694Z,31.19
2023-08-11T12:14:14.651Z,31.46
2023-08-11T12:16:44.106Z,31.43
2023-08-11T12:19:11.138Z,31.23
2023-08-11T12:21:37.944Z,31.00
2023-08-11T12:24:06.766Z,30.76
2023-08-11T12:26:33.287Z,30.62
2023-08-11T12:28:59.790Z,30.50
2023-08-11T12:31:26.362Z,30.48
2023-08-11T12:33:52.938Z,30.67
2023-08-11T12:36:19.564Z,30.63
2023-08-11T12:38:46.088Z,30.87
2023-08-11T12:41:12.575Z,31.21
2023-08-11T12:43:39.316Z,31.43
2023-08-11T12:46:14.803Z,30.83
2023-08-11T12:48:41.277Z,30.55
2023-08-11T12:51:08.184Z,30.51
2023-08-11T12:53:34.672Z,30.55
2023-08-11T12:56:01.592Z,30.71
2023-08-11T12:58:28.376Z,31.21
2023-08-11T13:00:55.029Z,31.60
2023-08-11T13:03:22.569Z,31.22
2023-08-11T13:05:49.533Z,31.02
2023-08-11T13:08:16.135Z,30.84
2023-08-11T13:10:42.825Z,30.39
2023-08-11T13:13:15.376Z,29.98
2023-08-11T13:15:42.260Z,29.93
2023-08-11T13:18:08.869Z,29.93
2023-08-11T13:23:16.196Z,30.14
2023-08-11T13:25:42.744Z,30.14
2023-08-11T13:28:09.248Z,30.09
2023-08-11T13:30:35.806Z,29.77
2023-08-11T13:33:03.744Z,29.49
2023-08-11T13:35:30.409Z,29.63
2023-08-11T13:37:57.111Z,30.08
2023-08-11T13:40:24.890Z,30.19
2023-08-11T13:42:51.557Z,30.51
2023-08-11T13:45:18.618Z,30.85
2023-08-11T13:47:45.736Z,30.92
2023-08-11T13:50:12.429Z,30.97
2023-08-11T13:52:38.903Z,31.45
2023-08-11T13:55:10.239Z,31.69
2023-08-11T13:57:37.360Z,31.45
2023-08-11T14:00:07.499Z,31.16
2023-08-11T14:02:34.102Z,31.15
2023-08-11T14:05:00.585Z,31.01
2023-08-11T14:07:32.584Z,30.81
2023-08-11T14:10:01.715Z,30.77
2023-08-11T14:12:28.295Z,30.73
2023-08-11T14:14:54.834Z,30.74
2023-08-11T14:17:21.557Z,30.83
2023-08-11T14:19:48.263Z,30.70
2023-08-11T14:22:14.926Z,30.60
2023-08-11T14:24:41.422Z,30.49
2023-08-11T14:27:08.068Z,30.56
2023-08-11T14:29:34.591Z,30.59
2023-08-11T14:32:23.211Z,30.60
2023-08-11T14:35:04.756Z,30.86
2023-08-11T14:37:46.083Z,30.79
2023-08-11T14:40:12.644Z,30.68
2023-08-11T14:42:39.300Z,30.44
2023-08-11T14:45:07.449Z,30.25
2023-08-11T14:47:34.117Z,30.18
2023-08-11T14:50:00.612Z,30.01
2023-08-11T14:52:27.313Z,29.83
2023-08-11T14:54:53.857Z,29.46
2023-08-11T14:57:20.830Z,29.33
2023-08-11T14:59:47.991Z,29.37
2023-08-11T15:02:14.683Z,29.32
2023-08-11T15:04:41.376Z,29.21
2023-08-11T15:07:08.030Z,29.15
2023-08-11T15:09:35.575Z,29.05
2023-08-11T15:12:02.252Z,29.03
2023-08-11T15:14:28.730Z,28.91
2023-08-11T15:16:55.381Z,28.81
2023-08-11T15:19:21.909Z,28.65
2023-08-11T15:21:48.778Z,28.46
2023-08-11T15:24:15.575Z,28.37
2023-08-11T15:26:42.172Z,28.22
2023-08-11T15:29:08.657Z,28.07
2023-08-11T15:31:35.267Z,27.91
2023-08-11T15:34:01.860Z,27.76
2023-08-11T15:36:28.427Z,27.71
2023-08-11T15:38:54.938Z,27.60
2023-08-11T15:41:21.674Z,27.39
2023-08-11T15:43:48.475Z,27.34
2023-08-11T15:46:15.163Z,27.29
2023-08-11T15:48:41.835Z,27.16
2023-08-11T15:51:08.499Z,27.15
2023-08-11T15:53:35.266Z,27.18
2023-08-11T15:56:02.438Z,27.19
2023-08-11T15:58:28.891Z,27.10
2023-08-11T16:00:55.433Z,27.06
2023-08-11T16:03:22.939Z,27.08
2023-08-11T16:05:49.635Z,26.95
2023-08-11T16:08:16.193Z,26.93
2023-08-11T16:10:43.277Z,26.92
2023-08-11T16:13:11.196Z,26.87
2023-08-11T16:15:37.973Z,26.95
2023-08-11T16:18:11.323Z,27.01
2023-08-11T16:20:38.456Z,27.02
2023-08-11T16:23:05.329Z,27.03
2023-08-11T16:25:31.902Z,27.09
2023-08-11T16:27:58.505Z,27.04
2023-08-11T16:30:25.020Z,27.06
2023-08-11T16:32:51.821Z,27.08
2023-08-11T16:35:18.426Z,27.06
2023-08-11T16:37:44.959Z,26.97
2023-08-11T16:40:12.053Z,26.91
2023-08-11T16:42:38.650Z,26.93
2023-08-11T16:45:05.898Z,26.93
2023-08-11T16:47:32.419Z,26.95
2023-08-11T16:49:58.907Z,26.79
2023-08-11T16:52:25.421Z,26.72
2023-08-11T16:54:52.432Z,26.71
2023-08-11T16:57:19.044Z,26.68
2023-08-11T16:59:45.582Z,26.66
2023-08-11T17:02:12.317Z,26.60
2023-08-11T17:04:39.022Z,26.60
2023-08-11T17:07:05.681Z,26.62
2023-08-11T17:09:32.128Z,26.59
2023-08-11T17:11:58.710Z,26.46
2023-08-11T17:14:25.304Z,26.37
2023-08-11T17:16:51.833Z,26.27
2023-08-11T17:19:18.370Z,26.14
2023-08-11T17:21:45.188Z,26.04
2023-08-11T17:24:11.772Z,26.04
2023-08-11T17:26:39.457Z,25.95
2023-08-11T17:29:05.971Z,25.84
2023-08-11T17:31:32.715Z,25.80
2023-08-11T17:33:59.391Z,25.71
2023-08-11T17:36:29.922Z,25.51
2023-08-11T17:38:57.842Z,25.52
2023-08-11T17:41:35.468Z,25.53
2023-08-11T17:44:02.004Z,25.41
2023-08-11T17:46:29.186Z,25.34
2023-08-11T17:48:55.965Z,25.20
2023-08-11T17:51:24.088Z,25.13
2023-08-11T17:54:03.692Z,25.05
2023-08-11T17:56:36.774Z,24.91
2023-08-11T17:59:03.715Z,24.89
2023-08-11T18:01:31.010Z,24.91
2023-08-11T18:04:02.027Z,24.81
2023-08-11T18:06:30.512Z,24.74
2023-08-11T18:08:57.339Z,24.73
2023-08-11T18:11:23.894Z,24.64
2023-08-11T18:13:50.507Z,24.62
2023-08-11T18:16:17.122Z,24.63
2023-08-11T18:18:43.866Z,24.56
2023-08-11T18:21:19.874Z,24.53
2023-08-11T18:23:47.923Z,24.48
2023-08-11T18:26:16.455Z,24.41
2023-08-11T18:28:43.480Z,24.34
2023-08-11T18:31:10.214Z,24.24
2023-08-11T18:33:37.184Z,24.18
2023-08-11T18:36:04.059Z,24.15
2023-08-11T18:38:30.620Z,24.10
2023-08-11T18:40:57.195Z,23.99
2023-08-11T18:43:23.741Z,23.90
2023-08-11T18:45:50.306Z,23.75
2023-08-11T18:48:16.960Z,23.73
2023-08-11T18:50:43.808Z,23.71
2023-08-11T18:53:10.464Z,23.66
2023-08-11T18:55:36.965Z,23.61
2023-08-11T18:58:04.732Z,23.58
2023-08-11T19:00:31.483Z,23.55
2023-08-11T19:02:58.317Z,23.52
2023-08-11T19:05:25.098Z,23.48
2023-08-11T19:07:51.708Z,23.37
2023-08-11T19:10:28.054Z,23.35
2023-08-11T19:12:54.748Z,23.35
2023-08-11T19:15:21.322Z,23.34
2023-08-11T19:17:48.059Z,23.33
2023-08-11T19:20:15.157Z,23.28
2023-08-11T19:22:41.917Z,23.25
2023-08-11T19:25:08.903Z,23.25
2023-08-11T19:27:35.597Z,23.21
2023-08-11T19:30:02.322Z,23.13
2023-08-11T19:32:29.335Z,23.09
2023-08-11T19:34:57.169Z,23.08
2023-08-11T19:37:23.739Z,23.04
2023-08-11T19:39:50.194Z,23.01
2023-08-11T19:42:16.936Z,22.95
2023-08-11T19:44:44.066Z,22.89
2023-08-11T19:47:10.636Z,22.88
2023-08-11T19:49:37.796Z,22.83
2023-08-11T19:52:04.671Z,22.81
2023-08-11T19:54:31.304Z,22.80
2023-08-11T19:56:57.937Z,22.67
2023-08-11T19:59:24.649Z,22.58
2023-08-11T20:01:52.695Z,22.54
2023-08-11T20:04:22.301Z,22.48
2023-08-11T20:06:48.831Z,22.46
2023-08-11T20:09:15.673Z,22.46
2023-08-11T20:11:42.290Z,22.43
2023-08-11T20:14:11.663Z,22.42
2023-08-11T20:16:38.255Z,22.38
2023-08-11T20:19:04.944Z,22.28
2023-08-11T20:21:31.603Z,22.25
2023-08-11T20:23:58.308Z,22.26
2023-08-11T20:26:28.490Z,22.26
2023-08-11T20:28:55.194Z,22.26
2023-08-11T20:31:21.983Z,22.24
2023-08-11T20:33:49.113Z,22.23
2023-08-11T20:36:15.590Z,22.22
2023-08-11T20:38:42.073Z,22.24
2023-08-11T20:41:08.738Z,22.25
2023-08-11T20:43:35.627Z,22.25
2023-08-11T20:46:02.124Z,22.25
2023-08-11T20:48:28.902Z,22.12
2023-08-11T20:51:03.377Z,22.01
2023-08-11T20:53:30.847Z,21.93
2023-08-11T20:56:00.944Z,21.90
2023-08-11T20:58:28.572Z,21.90
2023-08-11T21:00:55.551Z,21.90
2023-08-11T21:03:22.560Z,21.83
2023-08-11T21:05:49.216Z,21.72
2023-08-11T21:08:17.285Z,21.62
2023-08-11T21:10:48.361Z,21.53
2023-08-11T21:13:15.536Z,21.49
2023-08-11T21:15:42.573Z,21.49
2023-08-11T21:18:10.933Z,21.48
2023-08-11T21:20:37.901Z,21.46
2023-08-11T21:23:05.522Z,21.44
2023-08-11T21:25:33.292Z,21.42
2023-08-11T21:28:00.140Z,21.32
2023-08-11T21:30:26.932Z,21.27
2023-08-11T21:32:53.578Z,21.27
2023-08-11T21:35:21.330Z,21.31
2023-08-11T21:37:47.892Z,21.35
2023-08-11T21:40:14.613Z,21.35
2023-08-11T21:42:41.136Z,21.30
2023-08-11T21:45:08.210Z,21.25
2023-08-11T21:47:36.061Z,21.25
2023-08-11T21:52:43.341Z,21.36
2023-08-11T21:55:10.269Z,21.37
2023-08-11T21:57:37.104Z,21.34
2023-08-11T22:00:04.108Z,21.24
2023-08-11T22:02:30.886Z,21.19
2023-08-11T22:05:01.054Z,21.15
2023-08-11T22:07:27.571Z,21.09
2023-08-11T22:09:54.153Z,21.04
2023-08-11T22:12:21.321Z,20.99
2023-08-11T22:14:47.863Z,20.95
2023-08-11T22:17:17.525Z,20.91
2023-08-11T22:19:47.328Z,20.84
2023-08-11T22:22:15.680Z,20.80
2023-08-11T22:24:42.591Z,20.79
2023-08-11T22:27:11.077Z,20.75
2023-08-11T22:29:38.166Z,20.70
2023-08-11T22:32:05.193Z,20.67
2023-08-11T22:34:31.727Z,20.63
2023-08-11T22:36:58.257Z,20.59
2023-08-11T22:39:24.762Z,20.55
2023-08-11T22:41:51.201Z,20.57
2023-08-11T22:44:17.792Z,20.60
2023-08-11T22:46:44.578Z,20.56
2023-08-11T22:49:11.146Z,20.53
2023-08-11T22:51:37.604Z,20.48
2023-08-11T22:54:04.357Z,20.45
2023-08-11T22:56:31.054Z,20.44
2023-08-11T22:58:57.637Z,20.47
2023-08-11T23:01:24.306Z,20.48
2023-08-11T23:03:50.893Z,20.47
2023-08-11T23:06:17.453Z,20.49
2023-08-11T23:08:43.896Z,20.51
2023-08-11T23:11:10.517Z,20.49
2023-08-11T23:13:37.065Z,20.48
2023-08-11T23:16:04.345Z,20.47
2023-08-11T23:18:30.999Z,20.49
2023-08-11T23:20:57.536Z,20.43
2023-08-11T23:23:24.079Z,20.46
2023-08-11T23:25:51.295Z,20.47
2023-08-11T23:28:18.510Z,20.47
2023-08-11T23:30:45.043Z,20.46
2023-08-11T23:33:11.782Z,20.42
2023-08-11T23:35:39.714Z,20.34
2023-08-11T23:38:06.317Z,20.31
2023-08-11T23:40:33.349Z,20.28
2023-08-11T23:42:59.822Z,20.32
2023-08-11T23:45:26.317Z,20.26
2023-08-11T23:47:52.921Z,20.20
2023-08-11T23:50:19.788Z,20.17
2023-08-11T23:52:46.452Z,20.17
2023-08-11T23:55:13.667Z,20.16
2023-08-11T23:57:40.364Z,20.15
